Time;durP1;ratioP1;P1;durP2;ratioP2;P2;SDS_P1;SDS_P2;PMS_P1;PMS_P2;Temp;Humidity;BMP_temperature;BMP_pressure;BME280_temperature;BME280_humidity;BME280_pressure;Samples;Min_cycle;Max_cycle;Signal;HPM_P1;HPM_P2
2023/08/13 00:00:00;;;;;;;3.00;1.48;;;;;;;21.50;100.00;100970.22;5092239;28;20040;-69
2023/08/13 00:02:25;;;;;;;1.30;1.10;;;;;;;21.48;100.00;100960.84;5092930;28;20043;-70
2023/08/13 00:04:51;;;;;;;3.50;0.90;;;;;;;21.43;100.00;100961.44;5091465;28;20046;-70
2023/08/13 00:07:16;;;;;;;4.55;1.45;;;;;;;21.41;100.00;100955.53;5091844;28;20111;-69
2023/08/13 00:09:42;;;;;;;2.75;0.93;;;;;;;21.36;100.00;100960.63;5092508;28;20031;-69
2023/08/13 00:12:07;;;;;;;1.55;1.20;;;;;;;21.28;100.00;100971.41;5092442;28;20028;-70
2023/08/13 00:14:33;;;;;;;2.30;1.95;;;;;;;21.13;100.00;100976.06;5095652;28;20085;-69
2023/08/13 00:16:58;;;;;;;4.70;1.92;;;;;;;21.05;100.00;100973.59;5093632;28;20032;-69
2023/08/13 00:19:24;;;;;;;4.25;2.90;;;;;;;21.03;100.00;100979.09;5089940;28;20028;-69
2023/08/13 00:21:49;;;;;;;4.57;2.20;;;;;;;21.01;100.00;100981.13;5090961;28;20042;-70
2023/08/13 00:24:15;;;;;;;3.08;1.67;;;;;;;21.07;100.00;100976.88;5095351;28;20031;-68
2023/08/13 00:26:41;;;;;;;5.63;1.65;;;;;;;21.14;100.00;100980.34;5092511;28;20080;-69
2023/08/13 00:29:08;;;;;;;2.00;1.27;;;;;;;21.20;100.00;100976.91;5091870;28;20081;-69
2023/08/13 00:31:33;;;;;;;2.17;1.20;;;;;;;21.16;100.00;100975.66;5091314;28;20475;-69
2023/08/13 00:33:59;;;;;;;2.42;1.42;;;;;;;21.12;100.00;100977.09;5092746;28;20059;-69
2023/08/13 00:36:25;;;;;;;1.25;1.10;;;;;;;21.08;100.00;100970.56;5090909;28;20028;-69
2023/08/13 00:38:50;;;;;;;7.57;1.10;;;;;;;21.08;100.00;100970.56;5091701;28;20028;-69
2023/08/13 00:41:16;;;;;;;1.75;1.45;;;;;;;21.06;100.00;100962.00;5087216;28;20051;-69
2023/08/13 00:43:41;;;;;;;4.22;1.30;;;;;;;21.01;100.00;100967.91;5094569;28;20062;-69
2023/08/13 00:46:08;;;;;;;1.73;0.80;;;;;;;21.04;100.00;100961.38;5089301;28;20491;-69
2023/08/13 00:48:36;;;;;;;5.28;1.13;;;;;;;21.21;100.00;100957.38;5090776;28;20031;-69
2023/08/13 00:51:03;;;;;;;3.72;0.90;;;;;;;21.34;100.00;100945.94;5094695;28;20039;-69
2023/08/13 00:53:29;;;;;;;2.55;0.90;;;;;;;21.45;100.00;100951.47;5089743;28;20034;-69
2023/08/13 00:55:55;;;;;;;1.75;0.77;;;;;;;21.52;100.00;100951.47;5091934;28;20044;-69
2023/08/13 00:58:21;;;;;;;2.25;1.70;;;;;;;21.48;100.00;100956.34;5092156;28;20131;-69
2023/08/13 01:00:46;;;;;;;2.58;1.27;;;;;;;21.33;100.00;100950.44;5090351;28;20570;-69
2023/08/13 01:03:11;;;;;;;2.75;0.98;;;;;;;21.30;100.00;100957.97;5094554;28;20047;-69
2023/08/13 01:05:40;;;;;;;1.58;1.23;;;;;;;21.22;100.00;100951.06;5084781;28;20506;-69
2023/08/13 01:08:34;;;;;;;5.32;1.30;;;;;;;21.13;100.00;100954.88;5088102;28;20080;-69
2023/08/13 01:11:17;;;;;;;5.15;1.27;;;;;;;21.05;100.00;100955.06;5080519;28;20049;-70
2023/08/13 01:13:52;;;;;;;1.98;1.30;;;;;;;20.96;100.00;100949.13;5097410;28;20054;-69
2023/08/13 01:16:20;;;;;;;2.63;1.42;;;;;;;20.96;100.00;100951.78;5088233;28;20032;-70
2023/08/13 01:18:46;;;;;;;4.13;1.30;;;;;;;20.96;100.00;100940.38;5088231;28;20039;-69
2023/08/13 01:21:11;;;;;;;2.95;1.55;;;;;;;20.97;100.00;100942.00;5090063;28;20521;-69
2023/08/13 01:23:37;;;;;;;1.67;1.50;;;;;;;20.91;100.00;100938.31;5091816;28;20028;-69
2023/08/13 01:26:12;;;;;;;2.30;1.30;;;;;;;20.83;100.00;100944.63;5084094;28;20044;-70
2023/08/13 01:28:38;;;;;;;;;;;;;;;20.71;100.00;100932.19;5093842;28;20490;-69
2023/08/13 01:31:37;;;;;;;4.25;1.73;;;;;;;20.61;100.00;100926.44;5088708;28;19957;-70
2023/08/13 01:34:04;;;;;;;2.30;2.10;;;;;;;20.48;100.00;100937.78;5088442;28;20075;-69
2023/08/13 01:36:32;;;;;;;2.15;1.92;;;;;;;20.42;100.00;100928.00;5087113;28;20439;-69
2023/08/13 01:38:58;;;;;;;3.50;1.80;;;;;;;20.38;100.00;100932.03;5091793;28;20115;-69
2023/08/13 01:41:34;;;;;;;4.55;1.77;;;;;;;20.30;100.00;100932.22;5089169;28;20028;-69
2023/08/13 01:44:00;;;;;;;3.67;1.90;;;;;;;20.27;100.00;100928.13;5087001;28;20422;-69
2023/08/13 01:46:25;;;;;;;3.00;2.38;;;;;;;20.23;100.00;100924.25;5092813;28;20038;-69
2023/08/13 01:48:50;;;;;;;5.78;1.77;;;;;;;20.13;100.00;100919.31;5093023;28;20047;-69
2023/08/13 01:51:16;;;;;;;2.88;1.77;;;;;;;20.15;100.00;100916.47;5086503;28;20032;-69
2023/08/13 01:53:41;;;;;;;2.05;1.63;;;;;;;20.13;100.00;100913.19;5087349;28;20051;-69
2023/08/13 01:56:06;;;;;;;3.05;1.98;;;;;;;20.12;100.00;100915.03;5086026;28;20379;-69
2023/08/13 01:58:32;;;;;;;3.55;1.38;;;;;;;20.32;100.00;100909.00;5092987;28;20031;-69
2023/08/13 02:00:57;;;;;;;3.80;1.27;;;;;;;20.53;100.00;100909.72;5089649;28;20102;-69
2023/08/13 02:03:23;;;;;;;1.48;1.17;;;;;;;20.64;100.00;100910.16;5096210;28;20153;-69
2023/08/13 02:05:48;;;;;;;2.00;1.52;;;;;;;20.65;100.00;100907.31;5087114;28;20445;-69
2023/08/13 02:08:13;;;;;;;2.00;1.15;;;;;;;20.65;100.00;100903.84;5093087;28;20042;-69
2023/08/13 02:10:39;;;;;;;2.42;1.30;;;;;;;20.58;100.00;100906.47;5089267;28;20032;-69
2023/08/13 02:13:04;;;;;;;1.27;0.90;;;;;;;20.54;100.00;100906.06;5086946;28;20028;-69
2023/08/13 02:15:30;;;;;;;3.17;1.75;;;;;;;20.53;100.00;100904.41;5097177;28;20028;-69
2023/08/13 02:17:55;;;;;;;2.42;1.55;;;;;;;20.58;100.00;100906.47;5090175;28;20032;-69
2023/08/13 02:20:20;;;;;;;5.20;1.20;;;;;;;20.59;100.00;100913.41;5090711;28;20040;-69
2023/08/13 02:22:46;;;;;;;2.67;1.15;;;;;;;20.60;100.00;100914.22;5089803;28;20036;-69
2023/08/13 02:25:13;;;;;;;1.58;1.13;;;;;;;20.56;100.00;100913.81;5090025;28;20160;-69
2023/08/13 02:27:38;;;;;;;1.35;0.95;;;;;;;20.54;100.00;100911.34;5093202;28;20040;-69
2023/08/13 02:30:04;;;;;;;1.98;1.20;;;;;;;20.40;100.00;100909.66;5091629;28;20429;-69
2023/08/13 02:32:29;;;;;;;2.35;1.08;;;;;;;20.39;100.00;100923.09;5083913;28;20120;-69
2023/08/13 02:34:55;;;;;;;4.07;1.60;;;;;;;20.44;100.00;100910.09;5088927;28;20024;-69
2023/08/13 02:37:20;;;;;;;1.60;1.17;;;;;;;20.45;100.00;100907.25;5086092;28;20203;-69
2023/08/13 02:39:46;;;;;;;1.83;1.73;;;;;;;20.50;100.00;100904.00;5089937;28;20081;-69
2023/08/13 02:42:11;;;;;;;3.20;1.27;;;;;;;20.58;100.00;100910.94;5086271;28;20032;-69
2023/08/13 02:44:37;;;;;;;1.50;0.90;;;;;;;20.60;100.00;100904.44;5091078;28;20032;-69
2023/08/13 02:47:02;;;;;;;3.80;1.15;;;;;;;20.60;100.00;100907.09;5089317;28;20031;-69
2023/08/13 02:49:27;;;;;;;1.73;1.10;;;;;;;20.63;100.00;100904.06;5089148;28;20035;-69
2023/08/13 02:51:53;;;;;;;3.05;1.00;;;;;;;20.68;100.00;100906.91;5085629;28;20055;-69
2023/08/13 02:54:18;;;;;;;2.70;0.98;;;;;;;20.72;100.00;100900.22;5084490;28;20028;-69
2023/08/13 02:56:44;;;;;;;2.00;1.20;;;;;;;20.77;100.00;100908.38;5088504;28;20024;-69
2023/08/13 02:59:09;;;;;;;1.90;1.08;;;;;;;20.74;100.00;100910.59;5087342;28;20058;-69
2023/08/13 03:01:35;;;;;;;1.20;0.95;;;;;;;20.75;100.00;100910.41;5090452;28;20067;-69
2023/08/13 03:04:03;;;;;;;3.17;1.23;;;;;;;20.70;100.00;100917.31;5089772;28;20032;-69
2023/08/13 03:06:29;;;;;;;2.85;0.90;;;;;;;20.72;100.00;100916.09;5091343;28;20118;-69
2023/08/13 03:08:54;;;;;;;4.13;1.30;;;;;;;20.65;100.00;100912.59;5091963;28;20078;-69
2023/08/13 03:11:20;;;;;;;3.85;0.98;;;;;;;20.55;100.00;100922.75;5092343;28;20432;-69
2023/08/13 03:13:46;;;;;;;2.70;1.00;;;;;;;20.53;100.00;100909.72;5090868;28;20645;-69
2023/08/13 03:16:12;;;;;;;2.30;1.10;;;;;;;20.56;100.00;100908.50;5099509;28;20126;-69
2023/08/13 03:18:37;;;;;;;2.53;1.00;;;;;;;20.54;100.00;100910.53;5097915;28;20036;-69
2023/08/13 03:21:03;;;;;;;4.25;1.40;;;;;;;20.51;100.00;100922.34;5090562;28;20032;-69
2023/08/13 03:23:29;;;;;;;1.85;1.25;;;;;;;20.45;100.00;100923.13;5099525;28;20023;-69
2023/08/13 03:25:55;;;;;;;1.67;1.08;;;;;;;20.31;100.00;100920.59;5086560;28;20079;-69
2023/08/13 03:28:20;;;;;;;1.83;1.30;;;;;;;20.17;100.00;100920.53;5094622;28;20107;-69
2023/08/13 03:30:45;;;;;;;3.72;1.33;;;;;;;20.08;100.00;100926.19;5090490;28;20352;-69
2023/08/13 03:33:11;;;;;;;1.40;1.30;;;;;;;20.03;100.00;100928.59;5093707;28;20024;-69
2023/08/13 03:35:38;;;;;;;2.05;1.38;;;;;;;20.00;100.00;100921.88;5092010;28;20040;-69
2023/08/13 03:38:04;;;;;;;2.42;1.33;;;;;;;20.02;100.00;100919.84;5092868;28;20467;-69
2023/08/13 03:40:29;;;;;;;4.15;1.25;;;;;;;20.05;100.00;100927.38;5090871;28;20040;-69
2023/08/13 03:42:55;;;;;;;3.00;1.27;;;;;;;20.12;100.00;100916.84;5090334;28;20023;-69
2023/08/13 03:45:20;;;;;;;2.42;1.55;;;;;;;20.13;100.00;100926.41;5091901;28;20027;-69
2023/08/13 03:47:46;;;;;;;1.52;1.00;;;;;;;20.15;100.00;100932.34;5092891;28;20047;-69
2023/08/13 03:50:11;;;;;;;1.80;1.20;;;;;;;20.16;100.00;100932.13;5089452;28;20024;-69
2023/08/13 03:52:36;;;;;;;4.82;1.63;;;;;;;20.20;100.00;100936.03;5091377;28;20035;-69
2023/08/13 03:55:02;;;;;;;3.92;1.42;;;;;;;20.21;100.00;100931.56;5091395;28;20054;-69
2023/08/13 03:57:28;;;;;;;1.83;1.58;;;;;;;20.19;100.00;100923.81;5087403;28;20131;-69
2023/08/13 03:59:54;;;;;;;1.33;1.00;;;;;;;20.24;100.00;100927.69;5092271;28;20032;-69
2023/08/13 04:02:19;;;;;;;3.05;1.35;;;;;;;20.26;100.00;100926.50;5080932;28;20039;-69
2023/08/13 04:04:44;;;;;;;3.67;1.30;;;;;;;20.21;100.00;100924.44;5091720;28;20093;-69
2023/08/13 04:07:10;;;;;;;1.70;1.30;;;;;;;20.18;100.00;100927.47;5092032;28;20024;-69
2023/08/13 04:09:35;;;;;;;1.08;0.90;;;;;;;20.14;100.00;100931.50;5101538;28;20023;-69
2023/08/13 04:12:01;;;;;;;1.70;1.30;;;;;;;20.07;100.00;100935.13;5088986;28;20036;-69
2023/08/13 04:14:26;;;;;;;2.35;1.02;;;;;;;19.97;100.00;100932.84;5094221;28;20027;-69
2023/08/13 04:16:52;;;;;;;2.63;1.23;;;;;;;19.87;100.00;100932.34;5094831;28;20039;-69
2023/08/13 04:19:17;;;;;;;1.67;0.90;;;;;;;19.91;100.00;100935.44;5089081;28;20040;-69
2023/08/13 04:21:42;;;;;;;2.88;1.70;;;;;;;19.98;100.00;100936.28;5089074;28;20036;-69
2023/08/13 04:24:08;;;;;;;1.95;0.85;;;;;;;20.08;100.00;100937.59;5091120;28;20026;-68
2023/08/13 04:26:33;;;;;;;2.47;1.02;;;;;;;20.17;100.00;100938.25;5091981;28;20039;-68
2023/08/13 04:28:59;;;;;;;1.27;0.90;;;;;;;20.25;100.00;100939.91;5090512;28;20036;-68
2023/08/13 04:31:24;;;;;;;2.58;1.40;;;;;;;20.25;100.00;100930.16;5088102;28;20058;-68
2023/08/13 04:33:49;;;;;;;2.10;1.05;;;;;;;20.34;100.00;100936.88;5091365;28;20031;-68
2023/08/13 04:36:15;;;;;;;3.67;1.20;;;;;;;20.36;100.00;100939.34;5090646;28;20050;-69
2023/08/13 04:38:40;;;;;;;1.75;1.10;;;;;;;20.32;100.00;100944.19;5091255;28;20036;-69
2023/08/13 04:41:06;;;;;;;1.92;1.05;;;;;;;20.24;100.00;100943.56;5090166;28;20062;-69
2023/08/13 04:43:31;;;;;;;2.83;1.10;;;;;;;20.14;100.00;100947.38;5090042;28;20047;-69
2023/08/13 04:45:57;;;;;;;1.70;1.17;;;;;;;20.13;100.00;100951.03;5089654;28;20034;-69
2023/08/13 04:48:45;;;;;;;1.88;0.80;;;;;;;20.19;100.00;100950.25;5091832;28;20032;-67
2023/08/13 04:51:11;;;;;;;3.03;1.10;;;;;;;20.26;100.00;100949.50;5090475;28;20020;-68
2023/08/13 04:53:37;;;;;;;4.30;1.20;;;;;;;20.24;100.00;100948.88;5087391;28;20383;-68
2023/08/13 04:56:04;;;;;;;3.42;0.90;;;;;;;20.27;100.00;100951.13;5089639;28;20044;-70
2023/08/13 04:58:29;;;;;;;3.20;0.93;;;;;;;20.33;100.00;100950.31;5089989;28;20032;-71
2023/08/13 05:00:54;;;;;;;1.65;0.93;;;;;;;20.44;100.00;100955.06;5090257;28;20039;-68
2023/08/13 05:03:20;;;;;;;1.10;0.90;;;;;;;20.50;100.00;100952.47;5090260;28;20474;-68
2023/08/13 05:05:45;;;;;;;1.80;1.33;;;;;;;20.52;100.00;100949.63;5089392;28;20471;-68
2023/08/13 05:08:11;;;;;;;2.92;2.10;;;;;;;20.53;100.00;100957.38;5088723;28;20032;-69
2023/08/13 05:10:36;;;;;;;3.75;1.80;;;;;;;20.51;100.00;100958.56;5090581;28;20036;-68
2023/08/13 05:13:01;;;;;;;6.07;2.20;;;;;;;20.52;100.00;100954.91;5088249;28;20039;-68
2023/08/13 05:15:27;;;;;;;2.85;1.88;;;;;;;20.50;100.00;100951.66;5091467;28;20035;-68
2023/08/13 05:17:53;;;;;;;4.13;2.05;;;;;;;20.60;100.00;100960.03;5087320;28;20040;-68
2023/08/13 05:20:18;;;;;;;4.03;1.92;;;;;;;20.65;100.00;100957.63;5090294;28;20040;-69
2023/08/13 05:22:44;;;;;;;3.17;1.40;;;;;;;20.65;100.00;100960.25;5091817;28;20471;-68
2023/08/13 05:25:10;;;;;;;3.17;1.77;;;;;;;20.73;100.00;100968.03;5090517;28;20044;-68
2023/08/13 05:27:35;;;;;;;3.15;1.33;;;;;;;20.83;100.00;100963.16;5089650;28;20068;-68
2023/08/13 05:30:02;;;;;;;3.13;1.52;;;;;;;20.92;100.00;100965.63;5089175;28;20032;-68
2023/08/13 05:32:28;;;;;;;1.60;1.48;;;;;;;21.01;100.00;100961.78;5087628;28;20080;-68
2023/08/13 05:34:53;;;;;;;2.53;1.75;;;;;;;21.13;100.00;100963.63;5089719;28;20127;-68
2023/08/13 05:37:19;;;;;;;4.88;1.92;;;;;;;21.16;100.00;100957.94;5091341;28;20036;-68
2023/08/13 05:39:44;;;;;;;2.47;2.22;;;;;;;21.15;100.00;100958.97;5091167;28;20028;-68
2023/08/13 05:42:10;;;;;;;2.83;2.03;;;;;;;21.17;100.00;100964.06;5089181;28;20032;-68
2023/08/13 05:44:35;;;;;;;3.33;1.90;;;;;;;21.25;100.00;100953.31;5090102;28;20472;-68
2023/08/13 05:47:00;;;;;;;1.83;1.42;;;;;;;21.34;100.00;100965.31;5088382;28;20472;-68
2023/08/13 05:49:26;;;;;;;2.35;1.48;;;;;;;21.41;100.00;100955.53;5091234;28;20112;-68
2023/08/13 05:51:51;;;;;;;3.05;1.33;;;;;;;21.47;100.00;100960.03;5087044;28;20115;-68
2023/08/13 05:54:17;;;;;;;2.08;0.90;;;;;;;21.61;98.65;100960.84;5085207;28;20486;-68
2023/08/13 05:56:42;;;;;;;4.00;1.33;;;;;;;21.75;97.40;100961.63;5091006;28;20096;-68
2023/08/13 05:59:07;;;;;;;1.55;0.95;;;;;;;21.86;97.37;100966.31;5089060;28;20028;-69
2023/08/13 06:01:33;;;;;;;1.98;0.98;;;;;;;21.95;97.50;100957.13;5091153;28;20180;-69
2023/08/13 06:03:59;;;;;;;2.30;1.30;;;;;;;22.06;97.62;100964.47;5089973;28;20181;-68
2023/08/13 06:06:25;;;;;;;2.15;1.20;;;;;;;22.15;96.96;100960.59;5089502;28;20036;-69
2023/08/13 06:08:50;;;;;;;1.60;1.10;;;;;;;22.22;95.99;100962.38;5086585;28;20028;-68
2023/08/13 06:11:16;;;;;;;2.78;0.93;;;;;;;22.27;94.96;100960.72;5090590;28;20454;-68
2023/08/13 06:13:41;;;;;;;3.90;0.98;;;;;;;22.31;94.39;100956.63;5089673;28;20032;-68
2023/08/13 06:16:07;;;;;;;2.25;0.95;;;;;;;22.40;94.18;100965.19;5086791;28;20118;-69
2023/08/13 06:18:34;;;;;;;2.83;0.70;;;;;;;22.43;93.81;100960.28;5090471;28;20063;-68
2023/08/13 06:20:59;;;;;;;6.03;0.93;;;;;;;22.55;93.73;100967.59;5088082;28;20025;-68
2023/08/13 06:23:25;;;;;;;1.52;1.15;;;;;;;22.69;93.49;100963.81;5088860;28;20035;-69
2023/08/13 06:25:51;;;;;;;2.88;0.73;;;;;;;22.80;91.96;100956.03;5089674;28;20055;-68
2023/08/13 06:28:16;;;;;;;1.80;0.60;;;;;;;23.02;90.19;100963.69;5086068;28;20089;-68
2023/08/13 06:30:45;;;;;;;6.63;0.80;;;;;;;22.99;89.66;100969.44;5084858;28;20024;-68
2023/08/13 06:33:11;;;;;;;2.88;0.70;;;;;;;22.94;90.05;100963.94;5090798;28;20039;-68
2023/08/13 06:35:37;;;;;;;2.72;0.73;;;;;;;22.93;89.83;100960.47;5088751;28;20036;-68
2023/08/13 06:38:02;;;;;;;3.25;0.98;;;;;;;23.03;89.43;100958.16;5090216;28;20032;-68
2023/08/13 06:40:28;;;;;;;2.72;0.80;;;;;;;23.06;88.38;100964.88;5090484;28;20039;-68
2023/08/13 06:42:53;;;;;;;2.05;0.70;;;;;;;23.13;88.52;100955.03;5090041;28;20028;-68
2023/08/13 06:45:21;;;;;;;1.02;0.63;;;;;;;23.25;88.35;100958.59;5087150;28;20383;-68
2023/08/13 06:47:47;;;;;;;1.33;0.80;;;;;;;23.31;87.76;100957.75;5092984;28;20036;-68
2023/08/13 06:50:13;;;;;;;2.05;1.05;;;;;;;23.33;88.00;100955.69;5093193;28;20383;-68
2023/08/13 06:52:38;;;;;;;1.65;0.75;;;;;;;23.40;87.74;100958.28;5089419;28;20040;-68
2023/08/13 06:55:04;;;;;;;1.58;0.75;;;;;;;23.52;87.41;100963.72;5090883;28;20467;-68
2023/08/13 06:57:29;;;;;;;1.45;0.90;;;;;;;23.57;86.90;100956.75;5090554;28;20046;-68
2023/08/13 06:59:55;;;;;;;3.28;0.82;;;;;;;23.65;86.24;100956.47;5092636;28;20071;-68
2023/08/13 07:02:20;;;;;;;1.08;0.60;;;;;;;23.65;86.09;100960.97;5094563;28;20040;-69
2023/08/13 07:04:45;;;;;;;3.72;0.73;;;;;;;23.75;86.04;100971.94;5093862;28;20038;-68
2023/08/13 07:07:11;;;;;;;1.65;0.85;;;;;;;23.85;86.19;100958.94;5093299;28;20024;-68
2023/08/13 07:09:37;;;;;;;1.20;0.60;;;;;;;23.89;85.17;100960.13;5094078;28;20032;-68
2023/08/13 07:12:03;;;;;;;1.48;0.70;;;;;;;23.95;85.07;100959.25;5093486;28;20111;-68
2023/08/13 07:14:29;;;;;;;3.65;0.85;;;;;;;24.04;85.58;100955.28;5091649;28;20043;-67
2023/08/13 07:16:54;;;;;;;1.83;1.15;;;;;;;24.08;85.35;100964.44;5092494;28;20028;-67
2023/08/13 07:19:20;;;;;;;1.60;1.00;;;;;;;24.14;84.84;100958.22;5092486;28;20036;-67
2023/08/13 07:21:46;;;;;;;1.50;0.60;;;;;;;24.30;84.95;100962.16;5090818;28;20048;-68
2023/08/13 07:24:12;;;;;;;1.63;0.88;;;;;;;24.28;84.30;100960.75;5093776;28;20038;-67
2023/08/13 07:26:37;;;;;;;1.05;0.52;;;;;;;24.34;84.19;100957.22;5091509;28;20515;-68
2023/08/13 07:29:06;;;;;;;1.38;0.70;;;;;;;24.36;83.23;100955.13;5088967;28;20036;-67
2023/08/13 07:31:32;;;;;;;2.13;0.77;;;;;;;24.38;83.69;100963.72;5090811;28;20092;-67
2023/08/13 07:33:58;;;;;;;1.00;0.68;;;;;;;24.47;82.54;100957.06;5093469;28;20510;-68
2023/08/13 07:36:23;;;;;;;2.97;0.80;;;;;;;24.51;82.32;100955.56;5100380;28;20121;-68
2023/08/13 07:38:49;;;;;;;2.05;0.77;;;;;;;24.59;82.48;100955.25;5088955;28;20036;-68
2023/08/13 07:41:14;;;;;;;1.60;0.93;;;;;;;24.63;83.00;100952.94;5082852;28;20078;-68
2023/08/13 07:43:39;;;;;;;1.77;0.50;;;;;;;24.74;82.36;100957.50;5076378;28;20028;-68
2023/08/13 07:46:05;;;;;;;2.28;0.70;;;;;;;24.71;81.86;100953.44;5092233;28;20124;-69
2023/08/13 07:48:30;;;;;;;1.98;0.60;;;;;;;24.90;81.50;100951.56;5082589;28;20067;-68
2023/08/13 07:50:56;;;;;;;1.42;0.90;;;;;;;25.05;81.14;100949.28;5078210;28;20028;-68
2023/08/13 07:53:21;;;;;;;4.88;0.90;;;;;;;25.05;81.52;100945.81;5083531;28;20115;-68
2023/08/13 07:55:49;;;;;;;1.20;0.70;;;;;;;25.07;80.82;100952.53;5086739;28;20037;-68
2023/08/13 07:58:15;;;;;;;2.45;0.80;;;;;;;25.31;80.70;100947.25;5090904;28;20384;-68
2023/08/13 08:00:41;;;;;;;1.90;0.80;;;;;;;25.43;80.75;100945.44;5089013;28;20463;-68
2023/08/13 08:03:06;;;;;;;1.85;0.63;;;;;;;25.51;80.59;100942.44;5086124;28;20097;-68
2023/08/13 08:05:31;;;;;;;3.63;1.25;;;;;;;25.65;79.88;100940.34;5084502;28;20383;-68
2023/08/13 08:07:57;;;;;;;1.65;0.63;;;;;;;25.69;79.68;100944.19;5088280;28;20063;-68
2023/08/13 08:10:24;;;;;;;1.90;0.90;;;;;;;25.81;79.35;100945.00;5086857;28;20034;-68
2023/08/13 08:12:49;;;;;;;4.43;0.80;;;;;;;25.87;78.88;100941.41;5086703;28;20027;-68
2023/08/13 08:15:15;;;;;;;1.92;0.70;;;;;;;26.05;78.38;100940.41;5090931;28;20097;-68
2023/08/13 08:17:40;;;;;;;2.17;1.10;;;;;;;26.27;77.16;100940.63;5090484;28;20032;-69
2023/08/13 08:20:07;;;;;;;1.85;0.88;;;;;;;26.53;76.84;100940.06;5084484;28;20598;-69
2023/08/13 08:22:32;;;;;;;1.60;0.75;;;;;;;26.51;76.21;100939.50;5088110;28;20126;-68
2023/08/13 08:24:58;;;;;;;0.70;0.40;;;;;;;26.56;76.53;100944.94;5087307;28;20134;-68
2023/08/13 08:27:23;;;;;;;1.50;0.73;;;;;;;26.64;76.08;100947.25;5090719;28;20024;-68
2023/08/13 08:29:49;;;;;;;1.83;0.75;;;;;;;26.73;75.68;100940.47;5085239;28;20422;-68
2023/08/13 08:32:14;;;;;;;4.82;0.90;;;;;;;26.90;75.84;100945.03;5084993;28;20094;-68
2023/08/13 08:34:40;;;;;;;1.63;1.00;;;;;;;26.69;75.71;100944.66;5079591;28;20139;-68
2023/08/13 08:37:05;;;;;;;2.33;0.80;;;;;;;26.74;76.38;100942.09;5085121;28;20032;-69
2023/08/13 08:39:31;;;;;;;2.35;0.73;;;;;;;26.88;75.60;100931.09;5078675;28;20130;-68
2023/08/13 08:41:57;;;;;;;2.65;0.70;;;;;;;26.90;75.41;100940.50;5070939;28;20405;-68
2023/08/13 08:44:23;;;;;;;1.05;0.65;;;;;;;26.88;74.58;100934.59;5074032;28;20032;-68
2023/08/13 08:46:50;;;;;;;2.85;0.80;;;;;;;26.97;75.77;100940.38;5071444;28;20043;-68
2023/08/13 08:49:21;;;;;;;1.27;0.80;;;;;;;27.02;75.83;100938.59;5071190;28;20103;-68
2023/08/13 08:51:48;;;;;;;4.65;0.70;;;;;;;27.02;76.01;100943.13;5075002;28;20340;-69
2023/08/13 08:54:14;;;;;;;1.10;0.90;;;;;;;26.97;75.95;100945.72;5071949;28;20485;-67
2023/08/13 08:56:40;;;;;;;1.75;1.05;;;;;;;26.87;76.97;100940.19;5086107;28;20028;-69
2023/08/13 08:59:05;;;;;;;1.25;0.80;;;;;;;26.82;75.60;100943.56;5088282;28;20040;-68
2023/08/13 09:01:32;;;;;;;2.40;1.02;;;;;;;26.71;75.63;100937.22;5090400;28;20054;-68
2023/08/13 09:03:57;;;;;;;1.58;1.00;;;;;;;26.73;74.79;100937.78;5077550;28;20032;-68
2023/08/13 09:06:22;;;;;;;2.00;1.15;;;;;;;26.83;74.28;100931.81;5084014;28;20032;-68
2023/08/13 09:08:49;;;;;;;1.90;0.60;;;;;;;26.94;74.04;100930.16;5083491;28;20035;-68
2023/08/13 09:11:14;;;;;;;2.42;0.80;;;;;;;26.99;72.71;100933.72;5078616;28;20521;-68
2023/08/13 09:13:50;;;;;;;1.08;0.77;;;;;;;27.05;72.92;100926.59;5081651;28;20029;-68
2023/08/13 09:16:16;;;;;;;3.30;0.80;;;;;;;27.07;74.13;100927.97;5080079;28;20028;-68
2023/08/13 09:18:41;;;;;;;1.65;0.60;;;;;;;27.12;72.98;100929.94;5083674;28;20501;-68
2023/08/13 09:21:09;;;;;;;2.13;1.02;;;;;;;27.05;72.51;100929.28;5084306;28;20141;-68
2023/08/13 09:23:38;;;;;;;0.90;0.70;;;;;;;27.07;68.87;100924.50;5079813;28;20505;-69
2023/08/13 09:26:03;;;;;;;1.02;0.60;;;;;;;27.19;69.14;100924.44;5078139;28;20048;-68
2023/08/13 09:28:29;;;;;;;1.75;0.60;;;;;;;27.08;68.35;100931.47;5085304;28;20036;-68
2023/08/13 09:30:57;;;;;;;1.10;0.75;;;;;;;27.09;68.12;100927.75;5079923;28;20172;-68
2023/08/13 09:33:22;;;;;;;1.20;0.52;;;;;;;27.03;67.96;100918.00;5087158;28;20032;-68
2023/08/13 09:35:48;;;;;;;1.42;0.57;;;;;;;26.78;68.39;100929.88;5079899;28;20039;-70
2023/08/13 09:38:13;;;;;;;1.08;0.73;;;;;;;26.67;68.30;100930.72;5081320;28;20471;-68
2023/08/13 09:40:39;;;;;;;1.83;0.50;;;;;;;26.76;69.08;100928.50;5080599;28;20032;-68
2023/08/13 09:43:06;;;;;;;0.95;0.55;;;;;;;26.78;69.15;100927.19;5087615;28;20984;-68
2023/08/13 09:45:33;;;;;;;2.85;0.80;;;;;;;26.60;69.39;100927.38;5086783;28;20036;-73
2023/08/13 09:48:05;;;;;;;2.92;0.75;;;;;;;26.67;69.35;100929.91;5081278;28;20039;-68
2023/08/13 09:50:38;;;;;;;1.55;0.55;;;;;;;27.05;67.13;100927.41;5082194;28;20034;-68
2023/08/13 09:53:06;;;;;;;1.25;0.77;;;;;;;27.33;66.34;100926.53;5083282;28;20040;-68
2023/08/13 09:55:39;;;;;;;2.53;1.05;;;;;;;27.35;66.82;100928.97;5079529;28;20142;-68
2023/08/13 09:58:07;;;;;;;1.67;0.60;;;;;;;27.41;66.83;100925.31;5090732;28;20028;-68
2023/08/13 10:00:33;;;;;;;3.83;0.90;;;;;;;27.42;67.70;100922.38;5094619;28;20389;-68
2023/08/13 10:03:01;;;;;;;1.00;0.60;;;;;;;27.39;67.65;100917.53;5076885;28;20040;-68
2023/08/13 10:05:29;;;;;;;1.08;0.63;;;;;;;27.33;68.38;100923.88;5074570;28;20473;-68
2023/08/13 10:07:56;;;;;;;1.55;0.52;;;;;;;27.50;67.44;100923.81;5073547;28;20387;-68
2023/08/13 10:10:22;;;;;;;1.70;0.80;;;;;;;27.43;68.48;100915.97;5077238;28;20456;-68
2023/08/13 10:12:48;;;;;;;1.20;0.65;;;;;;;27.40;68.75;100919.16;5081102;28;20028;-68
2023/08/13 10:15:14;;;;;;;1.40;0.73;;;;;;;27.56;69.21;100919.38;5083878;28;20036;-68
2023/08/13 10:17:43;;;;;;;3.47;0.60;;;;;;;27.57;68.29;100918.31;5086714;28;20039;-68
2023/08/13 10:20:09;;;;;;;2.15;0.90;;;;;;;27.57;68.16;100913.75;5083915;28;20472;-68
2023/08/13 10:22:37;;;;;;;2.42;0.55;;;;;;;27.46;67.42;100906.63;5091067;28;20096;-68
2023/08/13 10:25:06;;;;;;;1.60;0.50;;;;;;;27.65;66.41;100910.69;5088605;28;20060;-67
2023/08/13 10:27:35;;;;;;;1.63;0.57;;;;;;;27.67;66.02;100907.78;5087675;28;20040;-67
2023/08/13 10:30:10;;;;;;;2.20;0.60;;;;;;;27.60;66.16;100907.94;5082662;28;20117;-68
2023/08/13 10:32:58;;;;;;;2.40;0.45;;;;;;;27.55;66.67;100910.53;5077200;28;20041;-68
2023/08/13 10:35:25;;;;;;;1.27;0.60;;;;;;;27.56;67.40;100900.63;5074600;28;20020;-67
2023/08/13 10:37:55;;;;;;;1.90;0.63;;;;;;;27.58;67.55;100902.00;5072828;28;20032;-66
2023/08/13 10:40:21;;;;;;;3.95;0.63;;;;;;;27.57;67.07;100902.25;5073697;28;20043;-66
2023/08/13 10:42:51;;;;;;;0.80;0.50;;;;;;;27.59;67.54;100900.16;5072822;28;20469;-66
2023/08/13 10:45:19;;;;;;;1.38;0.65;;;;;;;27.56;67.36;100895.28;5081131;28;20098;-66
2023/08/13 10:48:00;;;;;;;1.20;0.63;;;;;;;27.47;66.81;100894.06;5074192;28;20476;-65
2023/08/13 10:50:29;;;;;;;1.50;0.75;;;;;;;27.40;67.37;100887.06;5086868;28;20038;-65
2023/08/13 10:53:05;;;;;;;0.95;0.55;;;;;;;27.38;67.02;100889.16;5075564;28;20045;-65
2023/08/13 10:55:37;;;;;;;0.88;0.52;;;;;;;27.32;66.77;100895.50;5073687;28;20086;-66
2023/08/13 10:58:02;;;;;;;3.05;0.80;;;;;;;27.43;67.00;100891.88;5083352;28;20082;-66
2023/08/13 11:00:28;;;;;;;1.15;0.52;;;;;;;27.61;66.44;100898.06;5087961;28;20028;-66
2023/08/13 11:02:58;;;;;;;1.25;0.60;;;;;;;27.88;66.60;100887.44;5082177;28;20057;-65
2023/08/13 11:05:23;;;;;;;5.20;0.95;;;;;;;27.87;66.90;100883.97;5088504;28;20037;-65
2023/08/13 11:07:52;;;;;;;1.60;0.70;;;;;;;27.72;67.22;100884.56;5071905;28;20039;-65
2023/08/13 11:10:22;;;;;;;2.30;0.63;;;;;;;27.76;68.18;100884.88;5080096;28;20028;-66
2023/08/13 11:12:49;;;;;;;2.53;0.65;;;;;;;27.68;67.74;100871.94;5086366;28;20126;-66
2023/08/13 11:15:15;;;;;;;1.83;0.65;;;;;;;27.74;69.39;100881.66;5092530;28;20024;-66
2023/08/13 11:17:46;;;;;;;1.20;0.88;;;;;;;27.74;68.36;100873.63;5089594;28;20024;-66